createdAt,value
2022-08-10T00:00:47.219Z,-90.78913
2022-08-10T00:05:53.084Z,-90.82883
2022-08-10T00:10:54.445Z,-91.05596
2022-08-10T00:15:55.755Z,-91.50653
2022-08-10T00:20:57.063Z,-92.31529
2022-08-10T00:25:57.964Z,-91.78467
2022-08-10T00:30:58.933Z,-91.24167
2022-08-10T00:35:59.893Z,-90.80032
2022-08-10T00:41:00.824Z,-90.93659
2022-08-10T00:46:01.904Z,-91.47639
2022-08-10T00:51:02.835Z,-91.01871
2022-08-10T00:57:07.913Z,-90.73358
2022-08-10T01:02:18.308Z,-89.84995
2022-08-10T01:07:19.304Z,-89.65675
2022-08-10T01:12:37.772Z,-89.25604
2022-08-10T01:17:49.774Z,-88.98416
2022-08-10T01:22:52.073Z,-89.19942
2022-08-10T01:27:52.991Z,-88.79797
2022-08-10T01:32:53.950Z,-88.96557
2022-08-10T01:37:54.904Z,-89.0074
2022-08-10T01:42:55.861Z,-89.08397
2022-08-10T01:48:00.734Z,-88.97922
2022-08-10T01:53:01.792Z,-88.51365
2022-08-10T01:58:02.738Z,-88.72354
2022-08-10T02:03:03.670Z,-88.48119
2022-08-10T02:08:04.900Z,-88.38998
2022-08-10T02:13:05.880Z,-88.73903
2022-08-10T02:18:06.836Z,-88.93742
2022-08-10T02:23:07.751Z,-88.68753
2022-08-10T02:28:08.747Z,-88.83077
2022-08-10T02:33:09.689Z,-88.79956
2022-08-10T02:38:12.258Z,-89.37422
2022-08-10T02:45:23.629Z,-89.32844
2022-08-10T02:50:29.830Z,-89.39102
2022-08-10T02:55:32.448Z,-89.84925
2022-08-10T03:00:33.684Z,-89.73304
2022-08-10T03:05:34.624Z,-89.79166
2022-08-10T03:10:38.085Z,-90.36127
2022-08-10T03:15:40.562Z,-90.38468
2022-08-10T03:20:41.547Z,-89.77814
2022-08-10T03:25:53.197Z,-89.65296
2022-08-10T03:30:54.942Z,-89.20297
2022-08-10T03:36:40.447Z,-89.63315
2022-08-10T03:41:47.654Z,-89.29052
2022-08-10T03:46:55.080Z,-89.5601
2022-08-10T03:51:56.137Z,-89.81224
2022-08-10T03:56:57.649Z,-90.20472
2022-08-10T04:02:45.387Z,-89.85171
2022-08-10T04:07:49.139Z,-90.22052
2022-08-10T04:12:50.138Z,-90.09038
2022-08-10T04:17:56.947Z,-90.36154
2022-08-10T04:23:06.356Z,-90.23564
2022-08-10T04:28:07.264Z,-90.43795
2022-08-10T04:33:08.244Z,-90.70489
2022-08-10T04:38:09.204Z,-91.11616
2022-08-10T04:43:13.194Z,-91.1079
2022-08-10T04:48:40.956Z,-91.07466
2022-08-10T04:54:05.111Z,-91.50544
2022-08-10T04:59:07.212Z,-91.77442
2022-08-10T05:04:38.497Z,-91.98596
2022-08-10T05:10:01.474Z,-92.18423
2022-08-10T05:15:06.083Z,-92.33315
2022-08-10T05:20:07.817Z,-92.81221
2022-08-10T05:25:09.089Z,-92.77243
2022-08-10T05:30:09.999Z,-92.92081
2022-08-10T05:35:10.944Z,-92.65564
2022-08-10T05:40:11.888Z,-93.16499
2022-08-10T05:45:12.787Z,-92.93532
2022-08-10T05:50:13.736Z,-93.21537
2022-08-10T05:55:14.666Z,-94.02439
2022-08-10T06:00:37.322Z,-94.15161
2022-08-10T06:05:39.994Z,-94.05734
2022-08-10T06:11:07.705Z,-93.86105
2022-08-10T06:17:26.848Z,-94.50119
2022-08-10T06:22:27.755Z,-94.05444
2022-08-10T06:27:34.271Z,-94.20766
2022-08-10T06:32:36.207Z,-94.38163
2022-08-10T06:37:37.629Z,-94.01721
2022-08-10T06:42:38.560Z,-93.92668
2022-08-10T06:47:39.464Z,-93.86894
2022-08-10T06:52:40.393Z,-92.89982
2022-08-10T06:57:41.309Z,-92.67192
2022-08-10T07:02:42.212Z,-92.46529
2022-08-10T07:07:43.129Z,-92.55048
2022-08-10T07:12:44.103Z,-92.52887
2022-08-10T07:17:45.053Z,-92.07993
2022-08-10T07:23:01.437Z,-91.72289
2022-08-10T07:28:58.006Z,-92.46253
2022-08-10T07:33:58.949Z,-91.99001
2022-08-10T07:38:59.910Z,-92.02158
2022-08-10T07:44:00.846Z,-91.83878
2022-08-10T07:49:01.755Z,-91.9487
2022-08-10T07:54:16.218Z,-92.33822
2022-08-10T07:59:17.151Z,-92.60764
2022-08-10T08:04:18.048Z,-92.15945
2022-08-10T08:09:19.000Z,-92.2861
2022-08-10T08:14:20.018Z,-91.82498
2022-08-10T08:19:28.216Z,-91.88576
2022-08-10T08:24:37.770Z,-91.48505
2022-08-10T08:29:39.059Z,-91.25251
2022-08-10T08:34:40.094Z,-91.04864
2022-08-10T08:39:41.133Z,-90.62072
2022-08-10T08:44:45.170Z,-90.11822
2022-08-10T08:50:08.319Z,-89.63083
2022-08-10T08:56:00.753Z,-89.61831
2022-08-10T09:01:08.665Z,-89.42907
2022-08-10T09:06:09.577Z,-89.0191
2022-08-10T09:11:10.498Z,-88.7554
2022-08-10T09:16:11.483Z,-88.88564
2022-08-10T09:21:12.452Z,-88.85642
2022-08-10T09:26:13.357Z,-88.71298
2022-08-10T09:31:23.138Z,-88.47765
2022-08-10T09:36:33.127Z,-88.19296
2022-08-10T09:41:34.594Z,-88.31194
2022-08-10T09:46:35.911Z,-88.22355
2022-08-10T09:51:46.448Z,-87.38677
2022-08-10T09:56:47.960Z,-87.31405
2022-08-10T10:02:03.835Z,-86.83349
2022-08-10T10:07:05.460Z,-86.44259
2022-08-10T10:12:09.819Z,-86.22112
2022-08-10T10:17:11.236Z,-85.79767
2022-08-10T10:22:12.145Z,-85.00851
2022-08-10T10:27:16.016Z,-84.52407
2022-08-10T10:32:17.602Z,-84.59284
2022-08-10T10:37:18.505Z,-84.16297
2022-08-10T10:42:42.376Z,-83.7175
2022-08-10T10:47:45.566Z,-83.16652
2022-08-10T10:52:46.498Z,-82.84282
2022-08-10T10:57:58.857Z,-82.15185
2022-08-10T11:03:01.841Z,-82.00685
2022-08-10T11:08:02.771Z,-82.24945
2022-08-10T11:14:23.545Z,-82.12405
2022-08-10T11:20:01.253Z,-81.51019
2022-08-10T11:25:04.834Z,-81.77513
2022-08-10T11:30:05.744Z,-81.44414
2022-08-10T11:35:10.198Z,-81.29841
2022-08-10T11:40:13.047Z,-80.57495
2022-08-10T11:45:14.004Z,-80.39463
2022-08-10T11:50:14.909Z,-79.6855
2022-08-10T11:55:15.866Z,-79.00799
2022-08-10T12:00:17.390Z,-79.40249
2022-08-10T12:05:18.320Z,-79.08547
2022-08-10T12:10:19.370Z,-78.8492
2022-08-10T12:15:20.300Z,-77.91476
2022-08-10T12:20:21.207Z,-77.82711
2022-08-10T12:25:57.831Z,-78.08516
2022-08-10T12:30:59.521Z,-77.81732
2022-08-10T12:36:17.976Z,-77.0428
2022-08-10T12:41:43.613Z,-76.55487
2022-08-10T12:46:46.242Z,-76.35873
2022-08-10T12:51:49.568Z,-75.79928
2022-08-10T12:56:50.856Z,-75.66141
2022-08-10T13:02:06.681Z,-74.91712
2022-08-10T13:08:24.608Z,-74.17531
2022-08-10T13:13:28.504Z,-73.09373
2022-08-10T13:18:29.499Z,-72.5492
2022-08-10T13:23:30.414Z,-72.06459
2022-08-10T13:28:35.606Z,-71.46021
2022-08-10T13:34:41.575Z,-70.89836
2022-08-10T13:39:58.194Z,-71.38093
2022-08-10T13:45:01.703Z,-71.25281
2022-08-10T13:50:02.620Z,-70.28048
2022-08-10T13:55:03.618Z,-69.73336
2022-08-10T14:00:36.761Z,-68.71851
2022-08-10T14:05:39.173Z,-68.53418
2022-08-10T14:11:08.363Z,-68.44373
2022-08-10T14:16:12.389Z,-67.95194
2022-08-10T14:21:13.314Z,-67.7941
2022-08-10T14:26:16.129Z,-67.47808
2022-08-10T14:31:21.602Z,-66.79839
2022-08-10T14:36:24.468Z,-65.83313
2022-08-10T14:42:03.792Z,-65.74036
2022-08-10T14:47:08.590Z,-65.60107
2022-08-10T14:52:55.306Z,-65.24604
2022-08-10T14:58:17.303Z,-65.21962
2022-08-10T15:04:01.340Z,-65.13737
2022-08-10T15:09:03.686Z,-64.24249
2022-08-10T15:20:01.114Z,-63.90557
2022-08-10T15:25:05.776Z,-63.34403
2022-08-10T15:30:18.610Z,-62.52852
2022-08-10T15:35:19.531Z,-62.49284
2022-08-10T15:40:32.337Z,-62.44861
2022-08-10T15:45:35.559Z,-61.95065
2022-08-10T15:50:40.095Z,-61.75138
2022-08-10T15:55:45.316Z,-61.37624
2022-08-10T16:00:46.886Z,-61.19859
2022-08-10T16:06:01.069Z,-61.3226
2022-08-10T16:11:04.091Z,-61.36521
2022-08-10T16:16:05.013Z,-61.12796
2022-08-10T16:21:05.924Z,-61.13346
2022-08-10T16:26:15.197Z,-61.07648
2022-08-10T16:31:18.356Z,-60.75169
2022-08-10T16:36:19.288Z,-60.31035
2022-08-10T16:42:02.970Z,-60.36163
2022-08-10T16:47:06.429Z,-59.78084
2022-08-10T16:52:07.415Z,-59.60823
2022-08-10T16:57:08.330Z,-59.59736
2022-08-10T17:02:09.335Z,-59.58892
2022-08-10T17:07:10.440Z,-59.619
2022-08-10T17:12:11.372Z,-59.35313
2022-08-10T17:17:12.313Z,-58.98369
2022-08-10T17:22:13.236Z,-59.15599
2022-08-10T17:28:05.341Z,-58.9633
2022-08-10T17:33:36.597Z,-58.82963
2022-08-10T17:38:37.911Z,-58.74941
2022-08-10T17:43:58.572Z,-58.92068
2022-08-10T17:49:03.969Z,-59.37813
2022-08-10T17:54:05.028Z,-59.56835
2022-08-10T17:59:11.511Z,-59.5849
2022-08-10T18:04:18.070Z,-59.65333
2022-08-10T18:09:19.005Z,-59.50672
2022-08-10T18:14:19.922Z,-59.28263
2022-08-10T18:24:21.396Z,-59.82613
2022-08-10T18:29:22.401Z,-60.59327
2022-08-10T18:34:23.353Z,-60.66667
2022-08-10T18:39:24.322Z,-61.05161
2022-08-10T18:44:25.255Z,-61.15586
2022-08-10T18:49:26.174Z,-61.27824
2022-08-10T18:54:39.862Z,-61.51088
2022-08-10T19:00:07.974Z,-62.20302
2022-08-10T19:05:30.229Z,-62.68786
2022-08-10T19:10:33.105Z,-62.65266
2022-08-10T19:15:34.132Z,-62.88932
2022-08-10T19:20:37.042Z,-62.97581
2022-08-10T19:26:32.912Z,-62.99509
2022-08-10T19:31:45.650Z,-63.35052
2022-08-10T19:36:46.601Z,-63.1309
2022-08-10T19:41:47.500Z,-62.89973
2022-08-10T19:46:55.317Z,-63.2859
2022-08-10T19:51:56.278Z,-63.32708
2022-08-10T19:56:57.240Z,-63.43425
2022-08-10T20:01:58.879Z,-64.38982
2022-08-10T20:06:59.821Z,-64.71071
2022-08-10T20:12:00.794Z,-64.73283
2022-08-10T20:17:02.137Z,-64.91886
2022-08-10T20:22:03.063Z,-65.48888
2022-08-10T20:27:18.329Z,-65.41422
2022-08-10T20:32:59.169Z,-65.19016
2022-08-10T20:38:03.466Z,-66.09475
2022-08-10T20:43:05.591Z,-66.03578
2022-08-10T20:48:06.500Z,-65.84848
2022-08-10T20:53:07.413Z,-66.6559
2022-08-10T20:58:10.684Z,-67.00877
2022-08-10T21:03:20.957Z,-67.04776
2022-08-10T21:08:23.260Z,-67.29395
2022-08-10T21:13:24.222Z,-67.73718
2022-08-10T21:18:25.323Z,-67.36227
2022-08-10T21:23:30.534Z,-67.14502
2022-08-10T21:28:31.843Z,-66.71456
2022-08-10T21:33:32.771Z,-66.70765
2022-08-10T21:38:33.676Z,-66.30903
2022-08-10T21:43:44.717Z,-66.55327
2022-08-10T21:48:46.939Z,-66.473
2022-08-10T21:53:58.849Z,-66.86204
2022-08-10T21:58:59.831Z,-67.10502
2022-08-10T22:04:00.758Z,-66.94796
2022-08-10T22:09:01.762Z,-66.49268
2022-08-10T22:14:02.654Z,-66.07421
2022-08-10T22:19:13.478Z,-66.2613
2022-08-10T22:24:16.884Z,-66.00039
2022-08-10T22:29:20.060Z,-66.05933
2022-08-10T22:34:20.974Z,-65.76925
2022-08-10T22:40:11.314Z,-65.54053
2022-08-10T22:45:14.291Z,-65.28732
2022-08-10T22:50:20.168Z,-65.05919
2022-08-10T22:55:21.068Z,-64.9728
2022-08-10T23:00:31.395Z,-65.37445
2022-08-10T23:05:32.792Z,-65.48076
2022-08-10T23:10:33.691Z,-65.10428
2022-08-10T23:15:34.596Z,-65.16631
2022-08-10T23:20:35.507Z,-65.37465
2022-08-10T23:25:36.426Z,-65.38906
2022-08-10T23:30:45.196Z,-65.26655
2022-08-10T23:36:31.733Z,-65.26913
2022-08-10T23:41:35.907Z,-64.76649
2022-08-10T23:46:36.923Z,-64.63726
2022-08-10T23:51:38.893Z,-64.5352
2022-08-10T23:56:55.958Z,-64.63009
